createdAt,value
2024-04-02T00:00:06.389Z,73.81
2024-04-02T00:00:16.845Z,73.81
2024-04-02T00:00:27.309Z,73.81
2024-04-02T00:00:37.762Z,74.12
2024-04-02T00:00:48.219Z,74.33
2024-04-02T00:00:58.678Z,74.33
2024-04-02T00:01:09.158Z,74.33
2024-04-02T00:01:19.384Z,74.33
2024-04-02T00:01:29.832Z,74.22
2024-04-02T00:01:40.289Z,74.22
2024-04-02T00:01:50.765Z,74.12
2024-04-02T00:02:00.986Z,74.22
2024-04-02T00:02:11.489Z,74.22
2024-04-02T00:02:21.917Z,74.33
2024-04-02T00:02:32.377Z,74.22
2024-04-02T00:02:42.833Z,74.22
2024-04-02T00:02:53.298Z,74.22
2024-04-02T00:03:03.761Z,74.22
2024-04-02T00:03:14.221Z,74.16
2024-04-02T00:03:24.446Z,74.16
2024-04-02T00:03:34.904Z,74.16
2024-04-02T00:03:45.370Z,74.12
2024-04-02T00:03:55.838Z,74.26
2024-04-02T00:04:06.278Z,74.22
2024-04-02T00:04:16.739Z,74.46
2024-04-02T00:04:27.198Z,74.57
2024-04-02T00:04:37.652Z,74.46
2024-04-02T00:04:48.130Z,74.46
2024-04-02T00:04:58.571Z,74.46
2024-04-02T00:05:09.045Z,74.46
2024-04-02T00:05:19.496Z,74.46
2024-04-02T00:05:29.945Z,74.57
2024-04-02T00:05:40.408Z,74.57
2024-04-02T00:05:50.866Z,74.57
2024-04-02T00:06:01.325Z,74.57
2024-04-02T00:06:11.782Z,74.46
2024-04-02T00:06:22.241Z,74.46
2024-04-02T00:06:32.714Z,74.36
2024-04-02T00:06:42.942Z,74.26
2024-04-02T00:06:53.442Z,74.26
2024-04-02T00:07:03.651Z,74.26
2024-04-02T00:07:14.107Z,74.26
2024-04-02T00:07:24.567Z,74.36
2024-04-02T00:07:35.032Z,74.46
2024-04-02T00:07:45.487Z,74.46
2024-04-02T00:07:55.959Z,74.46
2024-04-02T00:08:06.492Z,74.46
2024-04-02T00:08:16.699Z,74.46
2024-04-02T00:08:27.162Z,74.46
2024-04-02T00:08:37.610Z,74.46
2024-04-02T00:08:48.065Z,74.57
2024-04-02T00:08:58.526Z,74.57
2024-04-02T00:09:08.985Z,74.57
2024-04-02T00:09:19.441Z,74.57
2024-04-02T00:09:29.912Z,74.46
2024-04-02T00:09:40.360Z,74.46
2024-04-02T00:09:50.825Z,74.57
2024-04-02T00:10:01.279Z,74.57
2024-04-02T00:10:11.738Z,74.67
2024-04-02T00:10:22.196Z,74.77
2024-04-02T00:10:32.657Z,74.77
2024-04-02T00:10:43.113Z,74.67
2024-04-02T00:10:53.584Z,74.67
2024-04-02T00:11:04.043Z,74.57
2024-04-02T00:11:14.511Z,74.57
2024-04-02T00:11:24.743Z,74.57
2024-04-02T00:11:34.991Z,74.57
2024-04-02T00:11:45.211Z,74.57
2024-04-02T00:11:55.668Z,74.57
2024-04-02T00:12:06.125Z,74.57
2024-04-02T00:12:16.585Z,74.57
2024-04-02T00:12:27.048Z,74.67
2024-04-02T00:12:37.508Z,74.67
2024-04-02T00:12:47.961Z,74.67
2024-04-02T00:12:58.420Z,74.67
2024-04-02T00:13:08.879Z,74.77
2024-04-02T00:13:19.345Z,74.88
2024-04-02T00:13:29.794Z,74.77
2024-04-02T00:13:40.273Z,74.77
2024-04-02T00:13:50.722Z,74.88
2024-04-02T00:14:01.188Z,74.88
2024-04-02T00:14:11.473Z,74.88
2024-04-02T00:14:21.689Z,74.88
2024-04-02T00:14:32.002Z,74.77
2024-04-02T00:14:42.463Z,74.77
2024-04-02T00:14:52.947Z,74.77
2024-04-02T00:15:03.170Z,74.88
2024-04-02T00:15:13.626Z,74.98
2024-04-02T00:15:24.087Z,74.98
2024-04-02T00:15:34.617Z,74.88
2024-04-02T00:15:44.788Z,74.88
2024-04-02T00:15:55.374Z,74.98
2024-04-02T00:16:05.581Z,74.98
2024-04-02T00:16:16.062Z,75.08
2024-04-02T00:16:26.292Z,74.98
2024-04-02T00:16:36.738Z,74.98
2024-04-02T00:16:47.191Z,74.98
2024-04-02T00:16:57.649Z,74.88
2024-04-02T00:17:08.178Z,74.88
2024-04-02T00:17:18.464Z,74.88
2024-04-02T00:17:28.721Z,74.88
2024-04-02T00:17:39.147Z,74.88
2024-04-02T00:17:49.604Z,74.88
2024-04-02T00:18:00.064Z,74.88
2024-04-02T00:18:10.524Z,74.88
2024-04-02T00:18:21.004Z,74.88
2024-04-02T00:18:31.223Z,74.88
2024-04-02T00:18:41.681Z,74.88
2024-04-02T00:18:52.139Z,74.88
2024-04-02T00:19:02.608Z,74.88
2024-04-02T00:19:13.054Z,74.88
2024-04-02T00:19:23.518Z,74.88
2024-04-02T00:19:33.996Z,74.88
2024-04-02T00:19:44.442Z,74.88
2024-04-02T00:19:54.893Z,74.88
2024-04-02T00:20:05.164Z,74.88
2024-04-02T00:20:15.607Z,74.88
2024-04-02T00:20:26.108Z,74.88
2024-04-02T00:20:36.314Z,74.98
2024-04-02T00:20:46.549Z,74.98
2024-04-02T00:20:56.786Z,74.98
2024-04-02T00:21:07.013Z,74.98
2024-04-02T00:21:17.477Z,74.98
2024-04-02T00:21:27.933Z,74.98
2024-04-02T00:21:38.396Z,74.98
2024-04-02T00:21:48.855Z,74.98
2024-04-02T00:21:59.313Z,75.08
2024-04-02T00:22:09.788Z,75.08
2024-04-02T00:22:20.038Z,75.18
2024-04-02T00:22:30.466Z,75.18
2024-04-02T00:22:40.922Z,75.08
2024-04-02T00:22:51.382Z,75.08
2024-04-02T00:23:01.887Z,75.08
2024-04-02T00:23:12.086Z,75.08
2024-04-02T00:23:22.546Z,75.18
2024-04-02T00:23:33.005Z,75.22
2024-04-02T00:23:43.473Z,75.29
2024-04-02T00:23:53.947Z,75.29
2024-04-02T00:24:04.393Z,75.39
2024-04-02T00:24:14.849Z,75.49
2024-04-02T00:24:25.399Z,75.53
2024-04-02T00:24:35.580Z,75.53
2024-04-02T00:24:46.038Z,75.43
2024-04-02T00:24:56.496Z,75.43
2024-04-02T00:25:06.959Z,75.43
2024-04-02T00:25:17.213Z,75.39
2024-04-02T00:25:27.437Z,75.43
2024-04-02T00:25:37.912Z,75.29
2024-04-02T00:25:48.137Z,75.32
2024-04-02T00:25:58.595Z,75.22
2024-04-02T00:26:09.066Z,75.12
2024-04-02T00:26:19.511Z,75.12
2024-04-02T00:26:29.971Z,75.01
2024-04-02T00:26:40.439Z,75.01
2024-04-02T00:26:50.891Z,75.01
2024-04-02T00:27:01.356Z,75.01
2024-04-02T00:27:11.812Z,75.01
2024-04-02T00:27:22.232Z,75.12
2024-04-02T00:27:32.688Z,75.12
2024-04-02T00:27:43.150Z,75.12
2024-04-02T00:27:53.608Z,75.32
2024-04-02T00:28:04.065Z,75.43
2024-04-02T00:28:14.533Z,75.53
2024-04-02T00:28:24.988Z,75.43
2024-04-02T00:28:35.442Z,75.43
2024-04-02T00:28:45.912Z,75.32
2024-04-02T00:28:56.140Z,75.32
2024-04-02T00:29:06.609Z,75.32
2024-04-02T00:29:17.054Z,75.32
2024-04-02T00:29:27.513Z,75.32
2024-04-02T00:29:37.983Z,75.32
2024-04-02T00:29:48.452Z,75.32
2024-04-02T00:29:58.688Z,75.22
2024-04-02T00:30:08.917Z,75.22
2024-04-02T00:30:19.391Z,75.22
2024-04-02T00:30:29.613Z,75.22
2024-04-02T00:30:40.075Z,75.32
2024-04-02T00:30:50.531Z,75.43
2024-04-02T00:31:00.989Z,75.43
2024-04-02T00:31:13.295Z,75.43
2024-04-02T00:31:21.714Z,75.43
2024-04-02T00:31:32.199Z,75.43
2024-04-02T00:31:42.632Z,75.43
2024-04-02T00:31:53.090Z,75.32
2024-04-02T00:32:03.567Z,75.32
2024-04-02T00:32:14.009Z,75.22
2024-04-02T00:32:24.525Z,75.12
2024-04-02T00:32:34.740Z,75.12
2024-04-02T00:32:45.206Z,75.12
2024-04-02T00:32:55.661Z,75.12
2024-04-02T00:33:06.117Z,75.12
2024-04-02T00:33:16.577Z,75.12
2024-04-02T00:33:27.038Z,75.12
2024-04-02T00:33:37.495Z,75.12
2024-04-02T00:33:47.962Z,75.12
2024-04-02T00:33:58.428Z,75.12
2024-04-02T00:34:08.874Z,75.12
2024-04-02T00:34:19.336Z,75.12
2024-04-02T00:34:29.809Z,75.12
2024-04-02T00:34:40.030Z,75.12
2024-04-02T00:34:50.493Z,75.01
2024-04-02T00:35:00.964Z,75.01
2024-04-02T00:35:11.206Z,74.91
2024-04-02T00:35:21.645Z,74.91
2024-04-02T00:35:32.113Z,74.91
2024-04-02T00:35:42.567Z,75.01
2024-04-02T00:35:53.025Z,75.01
2024-04-02T00:36:04.056Z,75.01
2024-04-02T00:36:13.805Z,75.01
2024-04-02T00:36:24.273Z,75.01
2024-04-02T00:36:34.723Z,75.12
2024-04-02T00:36:45.180Z,75.12
2024-04-02T00:36:55.638Z,75.12
2024-04-02T00:37:06.098Z,75.12
2024-04-02T00:37:16.559Z,75.12
2024-04-02T00:37:27.028Z,75.01
2024-04-02T00:37:37.530Z,74.91
2024-04-02T00:37:47.722Z,74.91
2024-04-02T00:37:58.181Z,74.91
2024-04-02T00:38:08.650Z,74.80
2024-04-02T00:38:19.107Z,74.80
2024-04-02T00:38:29.564Z,74.80
2024-04-02T00:38:40.031Z,74.80
2024-04-02T00:38:50.477Z,74.80
2024-04-02T00:39:00.942Z,74.80
2024-04-02T00:39:11.428Z,74.80
2024-04-02T00:39:21.650Z,74.91
2024-04-02T00:39:32.115Z,74.91
2024-04-02T00:39:42.338Z,74.91
2024-04-02T00:39:52.797Z,75.01
2024-04-02T00:40:03.257Z,75.01
2024-04-02T00:40:13.719Z,74.91
2024-04-02T00:40:24.174Z,74.91
2024-04-02T00:40:34.671Z,74.91
2024-04-02T00:40:44.870Z,75.01
2024-04-02T00:40:55.381Z,75.12
2024-04-02T00:41:05.589Z,75.22
2024-04-02T00:41:16.043Z,75.22
2024-04-02T00:41:26.503Z,75.22
2024-04-02T00:41:36.962Z,75.22
2024-04-02T00:41:47.456Z,75.22
2024-04-02T00:41:57.880Z,75.22
2024-04-02T00:42:08.344Z,75.22
2024-04-02T00:42:18.814Z,75.22
2024-04-02T00:42:29.270Z,75.43
2024-04-02T00:42:39.725Z,75.63
2024-04-02T00:42:50.188Z,75.73
2024-04-02T00:43:00.492Z,75.63
2024-04-02T00:43:10.950Z,75.63
2024-04-02T00:43:21.411Z,75.53
2024-04-02T00:43:31.871Z,75.53
2024-04-02T00:43:42.330Z,75.53
2024-04-02T00:43:52.802Z,75.43
2024-04-02T00:44:03.021Z,75.43
2024-04-02T00:44:13.494Z,75.43
2024-04-02T00:44:23.728Z,75.32
2024-04-02T00:44:34.178Z,75.32
2024-04-02T00:44:44.635Z,75.32
2024-04-02T00:44:55.097Z,75.22
2024-04-02T00:45:05.561Z,75.22
2024-04-02T00:45:16.026Z,75.43
2024-04-02T00:45:26.476Z,75.53
2024-04-02T00:45:36.939Z,75.53
2024-04-02T00:45:47.400Z,75.43
2024-04-02T00:45:57.870Z,75.43
2024-04-02T00:46:08.319Z,75.32
2024-04-02T00:46:18.775Z,75.32
2024-04-02T00:46:29.252Z,75.32
2024-04-02T00:46:39.718Z,75.22
2024-04-02T00:46:50.155Z,75.32
2024-04-02T00:47:00.620Z,75.22
2024-04-02T00:47:11.108Z,75.22
2024-04-02T00:47:21.326Z,75.22
2024-04-02T00:47:31.789Z,75.22
2024-04-02T00:47:42.240Z,75.43
2024-04-02T00:47:52.721Z,75.43
2024-04-02T00:48:03.150Z,75.32
2024-04-02T00:48:13.620Z,75.32
2024-04-02T00:48:23.850Z,75.43
2024-04-02T00:48:34.324Z,75.53
2024-04-02T00:48:44.548Z,75.53
2024-04-02T00:48:55.022Z,75.53
2024-04-02T00:49:05.278Z,75.43
2024-04-02T00:49:15.477Z,75.32
2024-04-02T00:49:25.936Z,75.22
2024-04-02T00:49:37.466Z,75.32
2024-04-02T00:49:46.868Z,75.32
2024-04-02T00:49:57.316Z,75.32
2024-04-02T00:50:07.784Z,75.32
2024-04-02T00:50:18.250Z,75.22
2024-04-02T00:50:28.701Z,75.22
2024-04-02T00:50:39.167Z,75.22
2024-04-02T00:50:49.622Z,75.32
2024-04-02T00:51:00.083Z,75.43
2024-04-02T00:51:10.538Z,75.43
2024-04-02T00:51:21.012Z,75.46
2024-04-02T00:51:31.463Z,75.43
2024-04-02T00:51:41.929Z,75.46
2024-04-02T00:51:52.375Z,75.43
2024-04-02T00:52:02.874Z,75.36
2024-04-02T00:52:13.096Z,75.36
2024-04-02T00:52:23.348Z,75.43
2024-04-02T00:52:33.804Z,75.53
2024-04-02T00:52:44.260Z,75.56
2024-04-02T00:52:54.720Z,75.56
2024-04-02T00:53:05.250Z,75.56
2024-04-02T00:53:15.456Z,75.46
2024-04-02T00:53:25.688Z,75.36
2024-04-02T00:53:36.159Z,75.36
2024-04-02T00:53:46.390Z,75.46
2024-04-02T00:53:56.845Z,75.46
2024-04-02T00:54:07.309Z,75.36
2024-04-02T00:54:17.768Z,75.36
2024-04-02T00:54:28.227Z,75.26
2024-04-02T00:54:38.686Z,75.26
2024-04-02T00:54:49.144Z,75.26
2024-04-02T00:54:59.486Z,75.26
2024-04-02T00:55:09.946Z,75.36
2024-04-02T00:55:20.408Z,75.46
2024-04-02T00:55:30.874Z,75.46
2024-04-02T00:55:41.330Z,75.56
2024-04-02T00:55:51.800Z,75.46
2024-04-02T00:56:02.249Z,75.46
2024-04-02T00:56:12.715Z,75.36
2024-04-02T00:56:23.170Z,75.26
2024-04-02T00:56:33.639Z,75.15
2024-04-02T00:56:44.091Z,75.15
2024-04-02T00:56:54.552Z,75.05
2024-04-02T00:57:05.019Z,75.05
2024-04-02T00:57:15.472Z,75.26
2024-04-02T00:57:25.930Z,75.46
2024-04-02T00:57:36.391Z,75.56
2024-04-02T00:57:46.858Z,75.77
2024-04-02T00:57:57.106Z,75.87
2024-04-02T00:58:07.334Z,75.98
2024-04-02T00:58:17.806Z,75.87
2024-04-02T00:58:28.026Z,75.77
2024-04-02T00:58:38.273Z,75.67
2024-04-02T00:58:48.733Z,75.67
2024-04-02T00:58:59.203Z,75.56
2024-04-02T00:59:09.667Z,75.56
2024-04-02T00:59:20.112Z,75.67
2024-04-02T00:59:30.570Z,75.67
2024-04-02T00:59:41.031Z,75.77
2024-04-02T00:59:51.505Z,75.77
2024-04-02T01:00:01.968Z,75.67
2024-04-02T01:00:12.412Z,75.77
2024-04-02T01:00:22.877Z,75.77
2024-04-02T01:00:33.329Z,75.77
2024-04-02T01:00:43.787Z,75.87
2024-04-02T01:00:54.251Z,75.87
2024-04-02T01:01:04.707Z,75.98
2024-04-02T01:01:15.180Z,76.08
2024-04-02T01:01:25.637Z,76.18
2024-04-02T01:01:36.088Z,76.29
2024-04-02T01:01:46.568Z,76.39
2024-04-02T01:01:57.005Z,76.29
2024-04-02T01:02:07.478Z,76.29
2024-04-02T01:02:17.923Z,76.29
2024-04-02T01:02:28.383Z,76.29
2024-04-02T01:02:38.860Z,76.18
2024-04-02T01:02:49.078Z,76.18
2024-04-02T01:02:59.552Z,76.18
2024-04-02T01:03:09.816Z,76.18
2024-04-02T01:03:20.048Z,76.18
2024-04-02T01:03:30.263Z,76.18
2024-04-02T01:03:40.732Z,76.18
2024-04-02T01:03:51.184Z,76.18
2024-04-02T01:04:01.645Z,76.18
2024-04-02T01:04:12.120Z,76.18
2024-04-02T01:04:22.343Z,76.18
2024-04-02T01:04:32.799Z,76.18
2024-04-02T01:04:43.276Z,76.39
2024-04-02T01:04:53.718Z,76.49
2024-04-02T01:05:04.181Z,76.49
2024-04-02T01:05:14.638Z,76.49
2024-04-02T01:05:25.096Z,76.39
2024-04-02T01:05:35.553Z,76.39
2024-04-02T01:05:46.056Z,76.39
2024-04-02T01:05:56.253Z,76.49
2024-04-02T01:06:06.708Z,76.59
2024-04-02T01:06:17.162Z,76.70
2024-04-02T01:06:27.620Z,76.59
2024-04-02T01:06:38.102Z,76.59
2024-04-02T01:06:48.546Z,76.59
2024-04-02T01:06:59.003Z,76.59
2024-04-02T01:07:09.293Z,76.70
2024-04-02T01:07:19.778Z,76.59
2024-04-02T01:07:29.994Z,76.80
2024-04-02T01:07:40.467Z,76.90
2024-04-02T01:07:50.694Z,77.01
2024-04-02T01:08:01.154Z,76.90
2024-04-02T01:08:11.659Z,76.80
2024-04-02T01:08:21.875Z,76.80
2024-04-02T01:08:32.323Z,76.70
2024-04-02T01:08:42.782Z,76.70
2024-04-02T01:08:53.246Z,76.70
2024-04-02T01:09:03.702Z,76.80
2024-04-02T01:09:14.162Z,76.90
2024-04-02T01:09:24.622Z,76.90
2024-04-02T01:09:35.080Z,76.80
2024-04-02T01:09:45.561Z,76.80
2024-04-02T01:09:55.775Z,76.70
2024-04-02T01:10:06.239Z,76.70
2024-04-02T01:10:16.701Z,76.59
2024-04-02T01:10:27.158Z,76.59
2024-04-02T01:10:37.614Z,76.59
2024-04-02T01:10:48.093Z,76.80
2024-04-02T01:10:58.525Z,76.90
2024-04-02T01:11:09.004Z,76.90
2024-04-02T01:11:19.454Z,76.80
2024-04-02T01:11:29.906Z,76.70
2024-04-02T01:11:40.370Z,76.70
2024-04-02T01:11:50.828Z,76.59
2024-04-02T01:12:01.298Z,76.49
2024-04-02T01:12:11.526Z,76.39
2024-04-02T01:12:22.007Z,76.49
2024-04-02T01:12:32.215Z,76.49
2024-04-02T01:12:42.720Z,76.49
2024-04-02T01:12:52.931Z,76.39
2024-04-02T01:13:03.391Z,76.39
2024-04-02T01:13:13.836Z,76.39
2024-04-02T01:13:24.303Z,76.39
2024-04-02T01:13:34.795Z,76.39
2024-04-02T01:13:44.994Z,76.49
2024-04-02T01:13:55.448Z,76.70
2024-04-02T01:14:05.919Z,76.80
2024-04-02T01:14:16.226Z,76.80
2024-04-02T01:14:26.671Z,76.80
2024-04-02T01:14:37.130Z,76.59
2024-04-02T01:14:47.590Z,76.59
2024-04-02T01:14:58.052Z,76.49
2024-04-02T01:15:08.509Z,76.49
2024-04-02T01:15:18.971Z,76.49
2024-04-02T01:15:29.431Z,76.49
2024-04-02T01:15:39.902Z,76.49
2024-04-02T01:15:50.121Z,76.70
2024-04-02T01:16:00.583Z,76.80
2024-04-02T01:16:11.045Z,77.01
2024-04-02T01:16:21.501Z,77.01
2024-04-02T01:16:31.957Z,77.01
2024-04-02T01:16:42.217Z,77.01
2024-04-02T01:16:52.478Z,77.01
2024-04-02T01:17:02.914Z,77.01
2024-04-02T01:17:13.140Z,77.01
2024-04-02T01:17:23.652Z,77.01
2024-04-02T01:17:33.862Z,77.01
2024-04-02T01:17:44.320Z,77.22
2024-04-02T01:17:54.787Z,77.31
2024-04-02T01:18:05.261Z,77.35
2024-04-02T01:18:15.697Z,77.31
2024-04-02T01:18:26.161Z,77.22
2024-04-02T01:18:36.618Z,77.11
2024-04-02T01:18:47.089Z,77.04
2024-04-02T01:18:57.536Z,76.90
2024-04-02T01:19:07.996Z,77.04
2024-04-02T01:19:18.454Z,77.04
2024-04-02T01:19:28.915Z,76.90
2024-04-02T01:19:39.374Z,76.94
2024-04-02T01:19:49.834Z,76.90
2024-04-02T01:20:00.329Z,76.90
2024-04-02T01:20:10.800Z,76.90
2024-04-02T01:20:21.222Z,76.94
2024-04-02T01:20:31.681Z,76.94
2024-04-02T01:20:42.160Z,76.94
2024-04-02T01:20:52.601Z,76.84
2024-04-02T01:21:03.062Z,76.80
2024-04-02T01:21:13.543Z,76.80
2024-04-02T01:21:24.025Z,76.80
2024-04-02T01:21:34.262Z,76.80
2024-04-02T01:21:44.502Z,76.84
2024-04-02T01:21:54.729Z,76.73
2024-04-02T01:22:05.184Z,76.73
2024-04-02T01:22:15.643Z,76.73
2024-04-02T01:22:26.101Z,76.63
2024-04-02T01:22:36.562Z,76.63
2024-04-02T01:22:47.021Z,76.73
2024-04-02T01:22:57.480Z,76.73
2024-04-02T01:23:07.962Z,76.73
2024-04-02T01:23:18.407Z,76.63
2024-04-02T01:23:28.856Z,76.73
2024-04-02T01:23:39.316Z,76.73
2024-04-02T01:23:49.778Z,76.73
2024-04-02T01:24:00.241Z,76.70
2024-04-02T01:24:10.695Z,76.84
2024-04-02T01:24:21.153Z,77.04
2024-04-02T01:24:31.613Z,77.15
2024-04-02T01:24:42.071Z,77.15
2024-04-02T01:24:52.533Z,77.15
2024-04-02T01:25:03.025Z,77.15
2024-04-02T01:25:13.461Z,77.04
2024-04-02T01:25:23.913Z,77.04
2024-04-02T01:25:34.393Z,76.94
2024-04-02T01:25:44.828Z,76.94
2024-04-02T01:25:55.378Z,76.94
2024-04-02T01:26:05.661Z,76.94
2024-04-02T01:26:15.866Z,76.94
2024-04-02T01:26:26.340Z,76.94
2024-04-02T01:26:36.561Z,76.94
2024-04-02T01:26:47.023Z,76.84
2024-04-02T01:26:57.482Z,76.84
2024-04-02T01:27:07.942Z,76.84
2024-04-02T01:27:18.402Z,76.84
2024-04-02T01:27:28.858Z,76.84
2024-04-02T01:27:39.321Z,76.84
2024-04-02T01:27:49.775Z,76.84
2024-04-02T01:28:00.239Z,76.84
2024-04-02T01:28:10.698Z,76.84
2024-04-02T01:28:21.158Z,76.94
2024-04-02T01:28:31.616Z,76.94
2024-04-02T01:28:42.074Z,76.94
2024-04-02T01:28:52.551Z,76.94
2024-04-02T01:29:03.002Z,76.94
2024-04-02T01:29:13.482Z,76.84
2024-04-02T01:29:23.911Z,76.84
2024-04-02T01:29:34.372Z,76.73
2024-04-02T01:29:44.839Z,76.73
2024-04-02T01:29:55.293Z,76.84
2024-04-02T01:30:05.571Z,77.04
2024-04-02T01:30:16.024Z,77.04
2024-04-02T01:30:26.492Z,77.04
2024-04-02T01:30:36.957Z,77.04
2024-04-02T01:30:47.194Z,76.94
2024-04-02T01:30:57.653Z,76.84
2024-04-02T01:31:07.877Z,76.84
2024-04-02T01:31:18.356Z,76.94
2024-04-02T01:31:28.793Z,77.04
2024-04-02T01:31:39.256Z,77.04
2024-04-02T01:31:49.714Z,76.94
2024-04-02T01:32:00.190Z,76.94
2024-04-02T01:32:10.684Z,76.94
2024-04-02T01:32:20.879Z,76.94
2024-04-02T01:32:31.336Z,76.94
2024-04-02T01:32:41.841Z,76.94
2024-04-02T01:32:52.253Z,76.84
2024-04-02T01:33:02.720Z,76.84
2024-04-02T01:33:13.185Z,76.73
2024-04-02T01:33:23.414Z,76.73
2024-04-02T01:33:33.873Z,76.73
2024-04-02T01:33:44.397Z,76.73
2024-04-02T01:33:54.639Z,76.73
2024-04-02T01:34:05.093Z,76.84
2024-04-02T01:34:15.570Z,76.84
2024-04-02T01:34:25.794Z,76.84
2024-04-02T01:34:36.258Z,76.84
2024-04-02T01:34:46.708Z,76.84
2024-04-02T01:34:57.168Z,76.84
2024-04-02T01:35:07.644Z,76.94
2024-04-02T01:35:18.201Z,77.15
2024-04-02T01:35:28.421Z,77.35
2024-04-02T01:35:38.745Z,77.35
2024-04-02T01:35:48.967Z,77.35
2024-04-02T01:35:59.430Z,77.25
2024-04-02T01:36:09.889Z,77.15
2024-04-02T01:36:20.346Z,77.15
2024-04-02T01:36:30.806Z,77.04
2024-04-02T01:36:41.266Z,77.04
2024-04-02T01:36:51.731Z,77.15
2024-04-02T01:37:02.192Z,77.25
2024-04-02T01:37:12.658Z,77.35
2024-04-02T01:37:22.896Z,77.45
2024-04-02T01:37:33.354Z,77.45
2024-04-02T01:37:43.821Z,77.35
2024-04-02T01:37:54.283Z,77.25
2024-04-02T01:38:04.734Z,77.25
2024-04-02T01:38:15.162Z,77.25
2024-04-02T01:38:25.634Z,77.35
2024-04-02T01:38:36.081Z,77.56
2024-04-02T01:38:46.541Z,77.56
2024-04-02T01:38:56.999Z,77.56
2024-04-02T01:39:07.468Z,77.56
2024-04-02T01:39:17.930Z,77.56
2024-04-02T01:39:28.385Z,77.56
2024-04-02T01:39:38.842Z,77.56
2024-04-02T01:39:49.327Z,77.56
2024-04-02T01:39:59.630Z,77.56
2024-04-02T01:40:09.852Z,77.56
2024-04-02T01:40:20.322Z,77.56
2024-04-02T01:40:30.552Z,77.56
2024-04-02T01:40:41.002Z,77.56
2024-04-02T01:40:51.466Z,77.45
2024-04-02T01:41:01.925Z,77.45
2024-04-02T01:41:12.435Z,77.35
2024-04-02T01:41:22.641Z,77.35
2024-04-02T01:41:33.106Z,77.35
2024-04-02T01:41:43.559Z,77.35
2024-04-02T01:41:54.025Z,77.35
2024-04-02T01:42:04.476Z,77.35
2024-04-02T01:42:14.934Z,77.35
2024-04-02T01:42:25.407Z,77.35
2024-04-02T01:42:35.854Z,77.35
2024-04-02T01:42:46.313Z,77.35
2024-04-02T01:42:56.773Z,77.35
2024-04-02T01:43:07.239Z,77.45
2024-04-02T01:43:17.692Z,77.45
2024-04-02T01:43:28.170Z,77.56
2024-04-02T01:43:38.619Z,77.56
2024-04-02T01:43:49.087Z,77.45
2024-04-02T01:43:59.531Z,77.45
2024-04-02T01:44:10.010Z,77.35
2024-04-02T01:44:20.468Z,77.35
2024-04-02T01:44:30.911Z,77.35
2024-04-02T01:44:41.388Z,77.45
2024-04-02T01:44:51.614Z,77.56
2024-04-02T01:45:02.098Z,77.66
2024-04-02T01:45:12.326Z,77.66
2024-04-02T01:45:22.783Z,77.66
2024-04-02T01:45:33.242Z,77.66
2024-04-02T01:45:43.720Z,77.66
2024-04-02T01:45:54.164Z,77.66
2024-04-02T01:46:04.631Z,77.76
2024-04-02T01:46:15.093Z,77.87
2024-04-02T01:46:25.540Z,78.08
2024-04-02T01:46:36.013Z,78.18
2024-04-02T01:46:46.463Z,78.08
2024-04-02T01:46:56.927Z,78.08
2024-04-02T01:47:07.405Z,78.18
2024-04-02T01:47:17.856Z,78.28
2024-04-02T01:47:28.306Z,78.38
2024-04-02T01:47:38.759Z,78.49
2024-04-02T01:47:49.223Z,78.38
2024-04-02T01:47:59.674Z,78.28
2024-04-02T01:48:10.133Z,78.18
2024-04-02T01:48:20.601Z,78.08
2024-04-02T01:48:31.062Z,78.08
2024-04-02T01:48:41.511Z,78.08
2024-04-02T01:48:51.968Z,77.97
2024-04-02T01:49:02.436Z,77.87
2024-04-02T01:49:12.894Z,77.87
2024-04-02T01:49:23.363Z,77.87
2024-04-02T01:49:33.595Z,77.76
2024-04-02T01:49:44.067Z,77.76
2024-04-02T01:49:54.282Z,77.76
2024-04-02T01:50:04.748Z,77.76
2024-04-02T01:50:15.233Z,77.76
2024-04-02T01:50:25.512Z,77.87
2024-04-02T01:50:35.706Z,78.08
2024-04-02T01:50:46.161Z,78.18
2024-04-02T01:50:56.617Z,78.28
2024-04-02T01:51:07.081Z,78.49
2024-04-02T01:51:17.554Z,78.49
2024-04-02T01:51:27.994Z,78.49
2024-04-02T01:51:38.451Z,78.59
2024-04-02T01:51:48.911Z,78.59
2024-04-02T01:51:59.379Z,78.49
2024-04-02T01:52:09.830Z,78.49
2024-04-02T01:52:20.294Z,78.38
2024-04-02T01:52:30.751Z,78.38
2024-04-02T01:52:41.269Z,78.31
2024-04-02T01:52:51.480Z,78.42
2024-04-02T01:53:01.947Z,78.49
2024-04-02T01:53:12.416Z,78.59
2024-04-02T01:53:22.876Z,78.59
2024-04-02T01:53:33.326Z,78.63
2024-04-02T01:53:43.780Z,78.49
2024-04-02T01:53:54.252Z,78.49
2024-04-02T01:54:04.491Z,78.42
2024-04-02T01:54:14.722Z,78.38
2024-04-02T01:54:24.950Z,78.42
2024-04-02T01:54:35.407Z,78.38
2024-04-02T01:54:45.870Z,78.42
2024-04-02T01:54:56.325Z,78.28
2024-04-02T01:55:06.782Z,78.31
2024-04-02T01:55:17.257Z,78.21
2024-04-02T01:55:27.708Z,78.18
2024-04-02T01:55:37.936Z,78.21
2024-04-02T01:55:48.397Z,78.31
2024-04-02T01:55:58.855Z,78.21
2024-04-02T01:56:09.332Z,78.21
2024-04-02T01:56:19.779Z,78.11
2024-04-02T01:56:30.231Z,78.11
2024-04-02T01:56:40.692Z,78.11
2024-04-02T01:56:51.153Z,78.11
2024-04-02T01:57:01.615Z,78.11
2024-04-02T01:57:12.073Z,78.11
2024-04-02T01:57:22.538Z,78.11
2024-04-02T01:57:32.990Z,78.01
2024-04-02T01:57:43.454Z,78.01
2024-04-02T01:57:53.924Z,78.31
2024-04-02T01:58:04.384Z,78.63
2024-04-02T01:58:14.827Z,78.73
2024-04-02T01:58:25.286Z,78.73
2024-04-02T01:58:35.584Z,78.59
2024-04-02T01:58:45.807Z,78.52
2024-04-02T01:58:56.277Z,78.52
2024-04-02T01:59:06.521Z,78.52
2024-04-02T01:59:16.963Z,78.52
2024-04-02T01:59:27.440Z,78.52
2024-04-02T01:59:37.881Z,78.42
2024-04-02T01:59:48.339Z,78.42
2024-04-02T01:59:58.797Z,78.42
2024-04-02T02:00:09.041Z,78.42
2024-04-02T02:00:19.488Z,78.52
2024-04-02T02:00:29.964Z,78.52
2024-04-02T02:00:40.414Z,78.63
2024-04-02T02:00:50.867Z,78.63
2024-04-02T02:01:01.324Z,78.63
2024-04-02T02:01:11.714Z,78.63
2024-04-02T02:01:22.168Z,78.52
2024-04-02T02:01:32.628Z,78.42
2024-04-02T02:01:43.089Z,78.42
2024-04-02T02:01:53.548Z,78.31
2024-04-02T02:02:04.014Z,78.31
2024-04-02T02:02:14.531Z,78.31
2024-04-02T02:02:24.745Z,78.21
2024-04-02T02:02:35.199Z,78.21
2024-04-02T02:02:45.658Z,78.31
2024-04-02T02:02:56.101Z,78.31
2024-04-02T02:03:06.558Z,78.31
2024-04-02T02:03:17.033Z,78.31
2024-04-02T02:03:27.254Z,78.52
2024-04-02T02:03:37.726Z,78.63
2024-04-02T02:03:47.965Z,78.63
2024-04-02T02:03:58.410Z,78.52
2024-04-02T02:04:08.878Z,78.52
2024-04-02T02:04:19.337Z,78.52
2024-04-02T02:04:29.795Z,78.52
2024-04-02T02:04:40.252Z,78.52
2024-04-02T02:04:50.722Z,78.52
2024-04-02T02:05:01.170Z,78.52
2024-04-02T02:05:11.638Z,78.42
2024-04-02T02:05:22.095Z,78.42
2024-04-02T02:05:32.565Z,78.42
2024-04-02T02:05:43.015Z,78.31
2024-04-02T02:05:53.472Z,78.21
2024-04-02T02:06:03.933Z,78.21
2024-04-02T02:06:14.393Z,78.21
2024-04-02T02:06:24.847Z,78.21
2024-04-02T02:06:35.315Z,78.31
2024-04-02T02:06:45.770Z,78.31
2024-04-02T02:06:56.239Z,78.31
2024-04-02T02:07:06.703Z,78.21
2024-04-02T02:07:17.149Z,78.21
2024-04-02T02:07:27.607Z,78.11
2024-04-02T02:07:38.069Z,78.11
2024-04-02T02:07:48.532Z,78.01
2024-04-02T02:07:58.998Z,77.91
2024-04-02T02:08:09.234Z,77.91
2024-04-02T02:08:19.700Z,77.91
2024-04-02T02:08:29.929Z,77.91
2024-04-02T02:08:40.396Z,78.01
2024-04-02T02:08:50.843Z,78.21
2024-04-02T02:09:01.321Z,78.21
2024-04-02T02:09:11.764Z,78.21
2024-04-02T02:09:22.229Z,78.11
2024-04-02T02:09:32.702Z,78.11
2024-04-02T02:09:43.148Z,78.01
2024-04-02T02:09:53.605Z,77.91
2024-04-02T02:10:04.071Z,77.91
2024-04-02T02:10:14.588Z,78.01
2024-04-02T02:10:24.824Z,78.11
2024-04-02T02:10:35.277Z,78.01
2024-04-02T02:10:45.737Z,77.91
2024-04-02T02:10:56.205Z,77.80
2024-04-02T02:11:06.699Z,77.80
2024-04-02T02:11:16.890Z,77.80
2024-04-02T02:11:27.351Z,77.70
2024-04-02T02:11:37.807Z,77.70
2024-04-02T02:11:48.266Z,77.91
2024-04-02T02:11:58.742Z,78.01
2024-04-02T02:12:09.194Z,78.01
2024-04-02T02:12:19.652Z,78.01
2024-04-02T02:12:30.124Z,77.91
2024-04-02T02:12:40.593Z,77.91
2024-04-02T02:12:50.805Z,77.80
2024-04-02T02:13:01.278Z,77.91
2024-04-02T02:13:11.520Z,77.91
2024-04-02T02:13:21.734Z,77.91
2024-04-02T02:13:32.191Z,78.01
2024-04-02T02:13:42.658Z,78.01
2024-04-02T02:13:53.110Z,78.01
2024-04-02T02:14:03.391Z,78.11
2024-04-02T02:14:13.898Z,78.31